Time;durP1;ratioP1;P1;durP2;ratioP2;P2;SDS_P1;SDS_P2;PMS_P1;PMS_P2;Temp;Humidity;BMP_temperature;BMP_pressure;BME280_temperature;BME280_humidity;BME280_pressure;Samples;Min_cycle;Max_cycle;Signal;HPM_P1;HPM_P2
2022/07/30 00:01:46;;;;;;;5.47;3.10;;;;;;;16.35;73.29;97373.00;5020635;28;20046;-57
2022/07/30 00:04:12;;;;;;;5.75;3.42;;;;;;;16.54;73.35;97372.28;5016085;28;20084;-57
2022/07/30 00:06:39;;;;;;;5.45;2.92;;;;;;;16.57;73.42;97374.41;5024953;28;20499;-58
2022/07/30 00:09:05;;;;;;;6.05;3.20;;;;;;;16.74;73.00;97377.47;5025151;28;20124;-58
2022/07/30 00:11:32;;;;;;;4.95;3.08;;;;;;;16.96;72.33;97376.13;5025648;28;20041;-58
2022/07/30 00:13:59;;;;;;;5.07;2.90;;;;;;;17.13;72.05;97385.75;5018931;28;20038;-58
2022/07/30 00:16:25;;;;;;;5.22;3.10;;;;;;;17.26;71.34;97385.03;5022735;28;20045;-56
2022/07/30 00:18:52;;;;;;;5.40;3.15;;;;;;;17.41;70.57;97380.44;5024835;28;20049;-57
2022/07/30 00:21:19;;;;;;;4.82;3.03;;;;;;;17.62;69.44;97378.19;5023976;28;20072;-55
2022/07/30 00:24:04;;;;;;;7.20;3.40;;;;;;;17.75;69.04;97382.09;5018108;28;20033;-55
2022/07/30 00:26:31;;;;;;;9.77;3.10;;;;;;;17.62;70.00;97382.88;5017748;28;20170;-56
2022/07/30 00:28:58;;;;;;;7.15;2.90;;;;;;;17.64;69.78;97383.38;5023426;28;20038;-52
2022/07/30 00:31:25;;;;;;;5.78;2.92;;;;;;;17.69;69.83;97380.56;5025463;28;20145;-55
2022/07/30 00:33:51;;;;;;;5.35;2.97;;;;;;;17.65;69.92;97377.59;5021058;28;20045;-53
2022/07/30 00:36:18;;;;;;;5.15;2.95;;;;;;;17.66;69.80;97381.97;5015903;28;20104;-52
2022/07/30 00:38:44;;;;;;;5.47;3.00;;;;;;;17.66;69.90;97386.66;5022834;28;20060;-54
2022/07/30 00:41:11;;;;;;;6.55;2.92;;;;;;;17.65;69.97;97380.34;5034160;28;20042;-52
2022/07/30 00:43:42;;;;;;;7.18;3.70;;;;;;;17.74;69.54;97382.41;5013803;28;20029;-51
2022/07/30 00:46:09;;;;;;;4.60;2.72;;;;;;;17.75;69.28;97373.91;5022857;28;20041;-54
2022/07/30 00:48:36;;;;;;;6.70;2.88;;;;;;;17.74;69.48;97369.53;5021469;28;20060;-53
2022/07/30 00:51:02;;;;;;;10.45;3.40;;;;;;;17.66;69.71;97365.53;5028344;28;20049;-52
2022/07/30 00:53:29;;;;;;;4.38;2.85;;;;;;;17.56;70.28;97373.91;5027853;28;20108;-53
2022/07/30 00:55:56;;;;;;;4.50;2.83;;;;;;;17.55;70.00;97366.84;5021240;28;20038;-55
2022/07/30 00:58:22;;;;;;;5.03;2.97;;;;;;;17.50;69.69;97367.72;5007127;28;20100;-55
2022/07/30 01:00:49;;;;;;;4.93;2.95;;;;;;;17.47;70.06;97373.78;5024418;28;20037;-55
2022/07/30 01:03:16;;;;;;;4.35;3.20;;;;;;;17.47;70.08;97365.56;5027188;28;20053;-56
2022/07/30 01:05:43;;;;;;;5.18;3.00;;;;;;;17.36;70.37;97362.16;5026606;28;20045;-56
2022/07/30 01:08:09;;;;;;;5.75;3.17;;;;;;;17.23;70.83;97369.22;5028183;28;20037;-55
2022/07/30 01:10:36;;;;;;;4.20;3.03;;;;;;;17.16;71.11;97376.97;5026436;28;20038;-55
2022/07/30 01:13:04;;;;;;;4.50;3.17;;;;;;;17.16;71.28;97377.78;5027619;28;20045;-55
2022/07/30 01:15:31;;;;;;;5.00;2.55;;;;;;;17.16;71.22;97377.78;5025614;28;20048;-55
2022/07/30 01:18:02;;;;;;;7.25;3.13;;;;;;;17.07;71.81;97385.03;5025515;28;20041;-55
2022/07/30 01:20:55;;;;;;;4.35;2.72;;;;;;;17.04;71.92;97382.84;5021827;28;20042;-55
2022/07/30 01:23:28;;;;;;;5.35;3.20;;;;;;;17.01;72.18;97388.91;5022666;28;20049;-54
2022/07/30 01:26:00;;;;;;;4.07;2.70;;;;;;;16.95;72.59;97388.16;5008193;28;20513;-53
2022/07/30 01:28:35;;;;;;;4.55;3.33;;;;;;;16.94;72.60;97389.25;5016669;28;20722;-55
2022/07/30 01:31:04;;;;;;;5.10;3.10;;;;;;;16.93;72.81;97386.81;5009969;28;20084;-52
2022/07/30 01:33:36;;;;;;;4.38;2.85;;;;;;;16.96;72.52;97387.06;5007613;28;20042;-54
2022/07/30 01:36:03;;;;;;;;;;;;;;;16.98;72.33;97386.75;5025937;28;20129;-55
2022/07/30 01:38:31;;;;;;;5.80;3.10;;;;;;;16.94;72.59;97392.00;5023188;28;19921;-52
2022/07/30 01:41:02;;;;;;;5.25;2.97;;;;;;;16.88;72.89;97384.97;5024195;28;19932;-55
2022/07/30 01:43:31;;;;;;;5.28;3.03;;;;;;;16.84;72.87;97384.72;5013022;28;20041;-53
2022/07/30 01:46:00;;;;;;;7.45;3.22;;;;;;;16.78;73.28;97391.38;5018793;28;20534;-51
2022/07/30 01:48:29;;;;;;;4.50;2.90;;;;;;;16.72;73.52;97389.81;5020491;28;20056;-52
2022/07/30 01:50:59;;;;;;;4.22;3.00;;;;;;;16.74;73.40;97390.34;5022037;28;20049;-52
2022/07/30 01:53:31;;;;;;;4.70;3.00;;;;;;;16.73;73.43;97394.19;5025856;28;20069;-51
2022/07/30 01:56:00;;;;;;;5.10;3.05;;;;;;;16.62;73.87;97383.34;5023703;28;20045;-51
2022/07/30 01:58:31;;;;;;;5.30;3.40;;;;;;;16.58;73.96;97386.97;5006871;28;20076;-55
2022/07/30 02:01:06;;;;;;;4.53;3.05;;;;;;;16.54;73.93;97384.00;5018913;28;20058;-55
2022/07/30 02:03:33;;;;;;;5.55;3.40;;;;;;;16.44;74.50;97386.84;5024151;28;20141;-55
2022/07/30 02:06:06;;;;;;;5.78;2.90;;;;;;;16.38;74.76;97388.81;5026568;28;20045;-56
2022/07/30 02:08:43;;;;;;;4.95;3.08;;;;;;;16.29;75.18;97385.91;5025436;28;20064;-53
2022/07/30 02:14:23;;;;;;;5.47;3.30;;;;;;;16.22;75.38;97386.25;5012252;28;20037;-57
2022/07/30 02:16:53;;;;;;;5.43;3.65;;;;;;;16.19;75.27;97396.94;5026900;28;20053;-57
2022/07/30 02:19:25;;;;;;;6.40;3.30;;;;;;;16.17;75.35;97393.66;5026372;28;20034;-52
2022/07/30 02:22:04;;;;;;;5.82;3.20;;;;;;;16.09;75.99;97395.94;5025902;28;20045;-55
2022/07/30 02:24:37;;;;;;;5.03;3.42;;;;;;;16.01;76.09;97399.28;5024324;28;20049;-52
2022/07/30 02:27:33;;;;;;;5.88;3.55;;;;;;;15.95;76.31;97401.25;5026683;28;20037;-52
2022/07/30 02:30:05;;;;;;;6.10;3.45;;;;;;;15.89;76.38;97402.38;5020864;28;20136;-53
2022/07/30 02:32:36;;;;;;;6.88;4.03;;;;;;;15.90;76.08;97411.38;5012318;28;20041;-56
2022/07/30 02:35:24;;;;;;;7.10;3.65;;;;;;;15.87;75.97;97404.56;5021764;28;20087;-56
2022/07/30 02:37:53;;;;;;;5.15;3.60;;;;;;;15.75;76.61;97404.94;5007001;28;20117;-55
2022/07/30 02:40:22;;;;;;;5.57;3.40;;;;;;;15.71;76.29;97415.59;5014616;28;20099;-53
2022/07/30 02:42:51;;;;;;;5.32;3.65;;;;;;;15.66;76.55;97412.91;5025688;28;20055;-50
2022/07/30 02:45:23;;;;;;;5.93;3.70;;;;;;;15.70;76.24;97413.19;5022532;28;20099;-52
2022/07/30 02:47:56;;;;;;;5.72;3.30;;;;;;;15.74;76.02;97423.22;5024432;28;20187;-54
2022/07/30 02:50:24;;;;;;;6.30;3.40;;;;;;;15.74;75.62;97422.44;5021375;28;20525;-52
2022/07/30 02:52:54;;;;;;;7.03;3.78;;;;;;;15.55;76.67;97425.81;5021982;28;20518;-55
2022/07/30 02:55:22;;;;;;;5.78;3.60;;;;;;;15.43;76.86;97431.63;5013893;28;20046;-54
2022/07/30 02:57:52;;;;;;;5.20;3.67;;;;;;;15.42;76.83;97429.19;5023855;28;20043;-54
2022/07/30 03:00:20;;;;;;;5.88;3.53;;;;;;;15.37;76.99;97430.00;5029702;28;20079;-53
2022/07/30 03:02:50;;;;;;;4.72;3.80;;;;;;;15.29;77.21;97427.91;5025372;28;20122;-51
2022/07/30 03:05:23;;;;;;;6.63;3.58;;;;;;;15.20;77.30;97436.69;5025571;28;20037;-52
2022/07/30 03:07:55;;;;;;;6.32;3.72;;;;;;;15.09;78.05;97435.09;5026653;28;20408;-54
2022/07/30 03:10:23;;;;;;;5.95;4.00;;;;;;;14.96;78.97;97431.03;5025449;28;20049;-55
2022/07/30 03:12:52;;;;;;;7.15;4.07;;;;;;;14.91;78.71;97429.16;5024604;28;20060;-55
2022/07/30 03:15:19;;;;;;;6.97;4.30;;;;;;;14.91;78.94;97439.25;5022976;28;20099;-55
2022/07/30 03:17:51;;;;;;;7.30;4.07;;;;;;;14.89;78.51;97447.69;5024543;28;20561;-56
2022/07/30 03:20:26;;;;;;;7.22;4.10;;;;;;;14.85;78.74;97445.81;5029801;28;20053;-54
2022/07/30 03:22:56;;;;;;;6.07;3.95;;;;;;;14.83;78.55;97443.38;5024638;28;20525;-52
2022/07/30 03:25:25;;;;;;;6.15;4.25;;;;;;;14.83;79.00;97441.44;5020634;28;20050;-54
2022/07/30 03:27:56;;;;;;;7.97;4.10;;;;;;;14.82;78.61;97437.09;5004935;28;20038;-50
2022/07/30 03:30:24;;;;;;;8.95;5.05;;;;;;;14.76;79.15;97442.81;5014259;28;20056;-52
2022/07/30 03:32:54;;;;;;;5.80;4.15;;;;;;;14.70;79.44;97445.56;5024595;28;20418;-53
2022/07/30 03:35:23;;;;;;;5.53;4.07;;;;;;;14.63;79.74;97441.50;5025258;28;20501;-49
2022/07/30 03:37:53;;;;;;;;;;;;;;;14.53;80.04;97445.06;5025178;28;20041;-53
2022/07/30 03:40:20;;;;;;;7.43;4.80;;;;;;;14.49;80.30;97443.97;5020816;28;20394;-51
2022/07/30 03:42:48;;;;;;;7.80;4.32;;;;;;;14.52;79.95;97446.16;5004836;28;20495;-55
2022/07/30 03:45:19;;;;;;;6.68;4.32;;;;;;;14.56;79.49;97452.69;5028247;28;20043;-53
2022/07/30 03:47:48;;;;;;;6.63;4.60;;;;;;;14.53;79.69;97453.25;5024271;28;20052;-54
2022/07/30 03:50:14;;;;;;;6.25;4.28;;;;;;;14.52;80.04;97452.41;5021326;28;20052;-53
2022/07/30 03:52:42;;;;;;;7.50;5.47;;;;;;;14.50;79.77;97453.78;5036873;28;20056;-53
2022/07/30 03:55:14;;;;;;;8.25;4.45;;;;;;;14.47;79.97;97457.03;5016021;28;20049;-55
2022/07/30 03:57:49;;;;;;;7.05;4.40;;;;;;;14.48;79.79;97456.78;5007667;28;20046;-52
2022/07/30 04:00:20;;;;;;;7.60;5.00;;;;;;;14.44;79.84;97456.53;5032078;28;20104;-54
2022/07/30 04:02:50;;;;;;;7.53;4.72;;;;;;;14.46;79.43;97460.88;5014933;28;20049;-55
2022/07/30 04:05:17;;;;;;;8.98;4.78;;;;;;;14.52;79.19;97457.84;5022687;28;20056;-56
2022/07/30 04:07:45;;;;;;;7.32;4.45;;;;;;;14.56;78.91;97466.31;5015647;28;20053;-55
2022/07/30 04:10:15;;;;;;;10.82;5.47;;;;;;;14.70;78.00;97472.81;5020091;28;20054;-55
2022/07/30 04:13:07;;;;;;;9.23;4.57;;;;;;;14.82;77.42;97472.53;4997604;28;20061;-56
2022/07/30 04:16:10;;;;;;;5.70;4.18;;;;;;;14.82;77.31;97482.63;5023948;28;20076;-56
2022/07/30 04:18:58;;;;;;;10.20;4.95;;;;;;;15.08;75.95;97477.09;5023907;28;20052;-56
2022/07/30 04:21:28;;;;;;;6.75;4.40;;;;;;;15.26;75.29;97483.81;5019975;28;20056;-56
2022/07/30 04:23:56;;;;;;;8.57;4.53;;;;;;;15.51;74.06;97483.97;5017778;28;20042;-56
2022/07/30 04:26:32;;;;;;;9.18;5.38;;;;;;;15.76;72.78;97488.47;5008365;28;20054;-56
2022/07/30 04:29:00;;;;;;;10.90;4.35;;;;;;;15.98;71.73;97487.25;5020120;28;20125;-56
2022/07/30 04:31:27;;;;;;;7.65;4.35;;;;;;;16.06;71.32;97489.38;5013828;28;20076;-56
2022/07/30 04:34:04;;;;;;;7.22;4.07;;;;;;;16.14;70.95;97495.31;5017173;28;20436;-56
2022/07/30 04:36:38;;;;;;;8.35;4.38;;;;;;;16.16;70.82;97485.75;5014605;28;20074;-54
2022/07/30 04:39:04;;;;;;;9.48;4.78;;;;;;;16.16;70.92;97488.47;5019100;28;20045;-56
2022/07/30 04:41:31;;;;;;;7.53;4.38;;;;;;;16.28;70.40;97496.28;5021375;28;20041;-57
2022/07/30 04:44:44;;;;;;;8.05;4.55;;;;;;;16.33;69.92;97496.25;5004477;28;20409;-57
2022/07/30 04:47:36;;;;;;;9.23;4.50;;;;;;;16.43;69.71;97492.59;5013983;28;20061;-56
2022/07/30 04:50:27;;;;;;;10.75;4.10;;;;;;;16.56;68.95;97499.34;5009994;28;20052;-56
2022/07/30 04:52:56;;;;;;;8.38;4.72;;;;;;;16.63;68.89;97504.47;5009777;28;20066;-56
2022/07/30 04:55:31;;;;;;;7.03;4.85;;;;;;;16.74;68.54;97502.44;5018281;28;20041;-56
2022/07/30 04:57:59;;;;;;;7.43;4.60;;;;;;;16.86;68.08;97507.50;5011403;28;20513;-52
2022/07/30 05:00:32;;;;;;;6.72;4.40;;;;;;;16.99;67.46;97511.47;5021295;28;20049;-50
2022/07/30 05:03:11;;;;;;;7.05;4.05;;;;;;;17.04;67.64;97508.69;5017634;28;20049;-53
2022/07/30 05:05:41;;;;;;;7.07;4.43;;;;;;;17.14;67.13;97518.72;5007099;28;20404;-55
2022/07/30 05:08:08;;;;;;;8.30;4.68;;;;;;;17.30;66.27;97519.34;5020310;28;20081;-55
2022/07/30 05:10:36;;;;;;;6.03;4.10;;;;;;;17.30;66.82;97513.88;5024588;28;20065;-55
2022/07/30 05:13:03;;;;;;;7.38;4.20;;;;;;;17.34;66.89;97503.13;5021670;28;20057;-56
2022/07/30 05:15:33;;;;;;;8.85;4.20;;;;;;;17.46;65.49;97519.16;5007804;28;20495;-56
2022/07/30 05:18:03;;;;;;;8.77;4.90;;;;;;;17.54;66.08;97519.31;5013890;28;20038;-56
2022/07/30 05:20:33;;;;;;;9.10;4.40;;;;;;;17.68;65.32;97521.31;5017552;28;20713;-56
2022/07/30 05:23:08;;;;;;;7.35;4.00;;;;;;;17.79;65.27;97519.25;5018420;28;20049;-56
2022/07/30 05:25:37;;;;;;;6.00;4.30;;;;;;;17.93;64.34;97528.38;5006382;28;20074;-56
2022/07/30 05:28:13;;;;;;;7.05;4.72;;;;;;;18.14;63.35;97519.03;5018609;28;20420;-56
2022/07/30 05:30:41;;;;;;;8.63;5.18;;;;;;;18.24;63.17;97515.31;5013733;28;20096;-56
2022/07/30 05:33:14;;;;;;;9.75;5.35;;;;;;;18.29;62.72;97520.72;5021763;28;20121;-57
2022/07/30 05:35:42;;;;;;;9.32;4.82;;;;;;;18.40;62.53;97521.38;5006323;28;20133;-57
2022/07/30 05:38:08;;;;;;;7.30;5.10;;;;;;;18.51;62.16;97522.84;5020232;28;20069;-57
2022/07/30 05:40:47;;;;;;;7.15;4.90;;;;;;;18.62;61.55;97522.63;5020533;28;20052;-56
2022/07/30 05:43:34;;;;;;;8.85;5.00;;;;;;;18.67;61.54;97528.84;5007859;28;20104;-56
2022/07/30 05:46:01;;;;;;;10.35;5.22;;;;;;;18.74;61.15;97522.97;5012804;28;20044;-54
2022/07/30 05:48:30;;;;;;;6.22;4.35;;;;;;;18.84;60.92;97536.50;5012751;28;20076;-56
2022/07/30 05:50:58;;;;;;;11.45;5.50;;;;;;;18.90;60.38;97534.47;5019192;28;20056;-54
2022/07/30 05:53:25;;;;;;;8.55;5.35;;;;;;;18.92;60.47;97537.75;5014078;28;20073;-53
2022/07/30 05:56:10;;;;;;;7.07;4.90;;;;;;;18.97;60.58;97540.38;5013185;28;20057;-52
2022/07/30 05:58:56;;;;;;;9.75;5.88;;;;;;;19.06;59.34;97537.75;5015106;28;20535;-54
2022/07/30 06:01:43;;;;;;;6.38;4.65;;;;;;;19.23;59.92;97533.59;5018581;28;20060;-53
2022/07/30 06:04:16;;;;;;;7.63;4.50;;;;;;;19.28;59.27;97539.00;5020458;28;20049;-56
2022/07/30 06:06:47;;;;;;;5.85;4.43;;;;;;;19.42;59.37;97541.72;5012457;28;20037;-55
2022/07/30 06:09:14;;;;;;;11.73;4.13;;;;;;;19.50;58.54;97545.72;5010281;28;20068;-53
2022/07/30 06:11:40;;;;;;;5.90;4.78;;;;;;;19.51;58.50;97550.06;5020626;28;20133;-53
2022/07/30 06:14:07;;;;;;;8.43;4.80;;;;;;;19.50;58.45;97543.75;5016774;28;20144;-51
2022/07/30 06:16:33;;;;;;;7.15;3.88;;;;;;;19.59;58.71;97540.28;5032182;28;20052;-56
2022/07/30 06:19:00;;;;;;;8.48;5.05;;;;;;;19.66;58.09;97545.38;5034248;28;20049;-53
2022/07/30 06:21:44;;;;;;;8.73;4.40;;;;;;;19.82;57.88;97552.16;5016905;28;20053;-54
2022/07/30 06:24:31;;;;;;;7.78;4.63;;;;;;;19.83;57.54;97547.47;5014881;28;20046;-55
2022/07/30 06:27:12;;;;;;;;;;;;;;;19.90;58.03;97553.34;5017274;28;20425;-55
2022/07/30 06:29:39;;;;;;;8.27;4.10;;;;;;;20.04;57.39;97553.34;5021946;28;19936;-57
2022/07/30 06:32:06;;;;;;;8.18;5.22;;;;;;;20.06;56.05;97558.53;5020025;28;20132;-52
2022/07/30 06:34:34;;;;;;;8.88;4.75;;;;;;;20.07;56.25;97562.91;5011096;28;20141;-55
2022/07/30 06:37:00;;;;;;;8.13;4.05;;;;;;;20.19;56.32;97563.16;5011354;28;20165;-54
2022/07/30 06:39:27;;;;;;;7.50;4.13;;;;;;;20.24;55.90;97560.28;5018168;28;20049;-55
2022/07/30 06:42:44;;;;;;;9.75;5.25;;;;;;;20.31;54.64;97559.84;5014923;28;20526;-56
2022/07/30 06:45:33;;;;;;;9.10;5.03;;;;;;;20.26;55.08;97563.56;5018735;28;20141;-54
2022/07/30 06:48:18;;;;;;;11.18;4.68;;;;;;;20.35;54.96;97562.81;5015290;28;20065;-53
2022/07/30 06:50:45;;;;;;;10.32;5.97;;;;;;;20.22;55.27;97553.50;5021346;28;20528;-52
2022/07/30 06:53:11;;;;;;;8.75;4.70;;;;;;;20.34;55.11;97563.94;5023057;28;20103;-56
2022/07/30 06:55:57;;;;;;;8.05;5.18;;;;;;;20.45;55.08;97562.56;5023276;28;20119;-52
2022/07/30 06:58:31;;;;;;;9.27;5.63;;;;;;;20.44;54.37;97562.88;5023026;28;20533;-56
2022/07/30 07:01:19;;;;;;;8.55;5.63;;;;;;;20.52;54.59;97565.69;5016699;28;20049;-56
2022/07/30 07:03:46;;;;;;;7.38;4.70;;;;;;;20.54;54.34;97566.19;5006172;28;20069;-55
2022/07/30 07:06:13;;;;;;;8.20;4.68;;;;;;;20.67;54.28;97574.69;5006995;28;20508;-52
2022/07/30 07:08:41;;;;;;;8.65;4.40;;;;;;;20.82;54.23;97570.72;5016217;28;20079;-56
2022/07/30 07:11:10;;;;;;;5.97;3.60;;;;;;;20.88;54.38;97564.00;5018117;28;20517;-57
2022/07/30 07:13:44;;;;;;;8.85;4.78;;;;;;;21.00;53.58;97573.59;5018474;28;20050;-56
2022/07/30 07:16:23;;;;;;;9.38;5.35;;;;;;;21.09;52.83;97571.72;5012814;28;20057;-57
2022/07/30 07:18:52;;;;;;;8.38;4.57;;;;;;;21.09;52.60;97566.22;5015828;28;20081;-57
2022/07/30 07:21:20;;;;;;;6.93;4.05;;;;;;;21.22;51.34;97569.97;5023786;28;20052;-57
2022/07/30 07:23:50;;;;;;;8.57;4.05;;;;;;;21.28;51.44;97576.16;5025068;28;20045;-55
2022/07/30 07:26:39;;;;;;;6.53;3.47;;;;;;;21.23;50.96;97573.56;5024822;28;20045;-54
2022/07/30 07:29:07;;;;;;;5.35;3.42;;;;;;;21.28;50.72;97573.41;5024476;28;20592;-57
2022/07/30 07:31:33;;;;;;;7.20;4.10;;;;;;;21.29;49.54;97569.53;5024066;28;20057;-57
2022/07/30 07:34:21;;;;;;;7.30;4.18;;;;;;;21.36;48.96;97577.31;5024382;28;20057;-57
2022/07/30 07:36:48;;;;;;;7.68;2.97;;;;;;;21.48;48.89;97582.25;5006756;28;20157;-54
2022/07/30 07:39:15;;;;;;;5.65;3.67;;;;;;;21.56;49.02;97581.47;5021320;28;20702;-61
2022/07/30 07:41:43;;;;;;;5.90;3.10;;;;;;;21.72;49.35;97572.72;5012444;28;20051;-60
2022/07/30 07:44:16;;;;;;;6.68;4.00;;;;;;;21.62;49.05;97577.41;5000773;28;20056;-60
2022/07/30 07:46:43;;;;;;;6.78;4.43;;;;;;;21.70;48.48;97573.03;5014289;28;20046;-60
2022/07/30 07:49:09;;;;;;;8.32;4.28;;;;;;;21.54;48.10;97572.69;5008586;28;20072;-61
2022/07/30 07:51:49;;;;;;;7.85;3.50;;;;;;;21.65;48.28;97573.19;5025927;28;20041;-61
2022/07/30 07:54:17;;;;;;;6.13;3.03;;;;;;;21.81;48.02;97573.56;5026209;28;20051;-60
2022/07/30 07:56:50;;;;;;;5.78;2.72;;;;;;;21.99;48.19;97573.59;5012515;28;20521;-60
2022/07/30 07:59:21;;;;;;;8.88;4.10;;;;;;;21.97;47.24;97582.22;5025335;28;20473;-60
2022/07/30 08:01:49;;;;;;;8.82;3.67;;;;;;;21.95;48.27;97567.94;5019415;28;20045;-61
2022/07/30 08:04:16;;;;;;;5.93;3.30;;;;;;;22.13;46.87;97570.69;5020687;28;20461;-56
2022/07/30 08:07:09;;;;;;;5.97;3.30;;;;;;;22.16;47.07;97579.16;4990442;28;20646;-60
2022/07/30 08:09:57;;;;;;;7.35;3.03;;;;;;;22.27;45.77;97581.56;5015852;28;20099;-62
2022/07/30 08:12:44;;;;;;;9.05;3.05;;;;;;;22.32;43.54;97575.88;5008275;28;20232;-57
2022/07/30 08:15:20;;;;;;;5.25;3.30;;;;;;;22.20;44.96;97576.56;5026520;28;20049;-61
2022/07/30 08:18:03;;;;;;;7.93;2.97;;;;;;;22.26;45.39;97582.72;5023653;28;20049;-60
2022/07/30 08:20:44;;;;;;;7.53;3.20;;;;;;;22.35;45.36;97580.78;5023847;28;20077;-59
2022/07/30 08:23:12;;;;;;;6.38;3.97;;;;;;;22.13;46.45;97588.06;5025905;28;20084;-58
2022/07/30 08:25:38;;;;;;;6.30;2.85;;;;;;;22.21;46.85;97587.25;5024156;28;20789;-60
2022/07/30 08:28:05;;;;;;;5.60;3.13;;;;;;;21.99;46.40;97576.34;5020150;28;20095;-60
2022/07/30 08:30:32;;;;;;;8.63;3.30;;;;;;;22.22;46.15;97582.53;5009216;28;20687;-60
2022/07/30 08:32:58;;;;;;;6.35;3.05;;;;;;;22.20;45.40;97582.06;5000616;28;20655;-60
2022/07/30 08:35:25;;;;;;;8.05;3.30;;;;;;;21.99;45.35;97584.63;5026080;28;20052;-56
2022/07/30 08:37:52;;;;;;;9.30;3.20;;;;;;;22.06;44.45;97593.25;5013139;28;20046;-56
2022/07/30 08:40:24;;;;;;;6.78;3.00;;;;;;;22.11;44.85;97589.53;5018275;28;20505;-56
2022/07/30 08:43:02;;;;;;;6.07;2.80;;;;;;;22.26;44.60;97586.28;5007695;28;20605;-55
2022/07/30 08:45:30;;;;;;;5.93;2.70;;;;;;;22.53;44.79;97576.06;5019646;28;20053;-56
2022/07/30 08:48:20;;;;;;;5.22;2.13;;;;;;;23.01;43.90;97581.66;5017288;28;20088;-56
2022/07/30 08:50:49;;;;;;;8.23;2.88;;;;;;;22.86;41.85;97592.09;5020106;28;20081;-57
2022/07/30 08:53:56;;;;;;;6.32;2.17;;;;;;;22.95;42.37;97594.00;5025979;28;20046;-56
2022/07/30 08:56:23;;;;;;;5.78;2.53;;;;;;;23.12;41.43;97574.66;5024675;28;20056;-57
2022/07/30 08:58:50;;;;;;;5.78;2.60;;;;;;;23.19;41.75;97578.84;5011800;28;20420;-57
2022/07/30 09:01:16;;;;;;;3.90;2.40;;;;;;;23.21;41.75;97579.31;5018786;28;20527;-57
2022/07/30 09:03:43;;;;;;;7.10;2.60;;;;;;;23.17;42.04;97584.69;5023266;28;20049;-57
2022/07/30 09:06:10;;;;;;;4.82;2.20;;;;;;;23.23;41.72;97579.81;5023373;28;20042;-57
2022/07/30 09:08:37;;;;;;;8.70;2.75;;;;;;;23.38;40.96;97581.25;5012769;28;20135;-57
2022/07/30 09:11:03;;;;;;;7.25;3.10;;;;;;;23.42;40.57;97584.97;5021196;28;20660;-57
2022/07/30 09:13:34;;;;;;;6.15;2.38;;;;;;;23.39;41.22;97593.91;5017461;28;20603;-63
2022/07/30 09:16:02;;;;;;;6.78;3.00;;;;;;;23.20;40.62;97586.81;5022682;28;20045;-62
2022/07/30 09:18:32;;;;;;;5.17;2.20;;;;;;;23.15;40.82;97591.69;5021182;28;20045;-67
2022/07/30 09:21:12;;;;;;;8.77;3.40;;;;;;;23.34;40.10;97589.38;5018727;28;20124;-63
2022/07/30 09:23:39;;;;;;;4.50;2.30;;;;;;;23.49;40.42;97588.03;5020859;28;20044;-64
2022/07/30 09:26:08;;;;;;;4.60;2.40;;;;;;;23.77;39.86;97589.50;5011367;28;20529;-64
2022/07/30 09:28:37;;;;;;;5.07;2.20;;;;;;;23.97;39.65;97587.91;5016732;28;20045;-64
2022/07/30 09:31:13;;;;;;;6.72;2.65;;;;;;;23.66;39.67;97597.34;5015498;28;20131;-67
2022/07/30 09:33:59;;;;;;;8.30;2.78;;;;;;;23.58;40.00;97592.69;5015779;28;20487;-64
2022/07/30 09:36:40;;;;;;;7.82;2.47;;;;;;;23.85;40.18;97585.06;5018142;28;20432;-65
2022/07/30 09:39:35;;;;;;;5.85;2.28;;;;;;;23.71;39.85;97577.81;5019539;28;20049;-66
2022/07/30 09:42:27;;;;;;;6.97;2.30;;;;;;;23.89;39.51;97575.75;5016166;28;20046;-65
2022/07/30 09:45:13;;;;;;;4.50;2.03;;;;;;;24.09;39.19;97572.53;5014374;28;20139;-65
2022/07/30 09:47:47;;;;;;;7.63;2.47;;;;;;;23.86;39.23;97586.66;5016451;28;20041;-64
2022/07/30 09:50:15;;;;;;;14.37;3.10;;;;;;;23.63;39.96;97590.53;5016502;28;20757;-63
2022/07/30 09:53:06;;;;;;;6.70;2.25;;;;;;;23.54;39.93;97583.47;5017476;28;20559;-65
2022/07/30 09:55:35;;;;;;;9.15;2.70;;;;;;;23.52;39.70;97592.06;5018611;28;20080;-65
2022/07/30 09:58:09;;;;;;;4.85;2.72;;;;;;;23.30;39.46;97580.13;5019963;28;20727;-65
2022/07/30 10:00:43;;;;;;;4.65;2.20;;;;;;;23.64;39.30;97583.88;5023484;28;20876;-65
2022/07/30 10:03:42;;;;;;;6.13;2.25;;;;;;;23.70;39.18;97587.25;5015496;28;20445;-65
2022/07/30 10:06:35;;;;;;;3.65;1.90;;;;;;;23.89;39.22;97583.25;5013523;28;20067;-65
2022/07/30 10:09:26;;;;;;;7.93;2.30;;;;;;;23.64;39.64;97586.66;5023132;28;20042;-65
2022/07/30 10:11:55;;;;;;;6.65;2.40;;;;;;;23.98;39.28;97574.88;5023208;28;20077;-65
2022/07/30 10:14:26;;;;;;;6.93;1.90;;;;;;;24.08;39.41;97581.97;5010102;28;20489;-65
2022/07/30 10:16:59;;;;;;;7.00;2.65;;;;;;;24.28;38.88;97580.38;5011772;28;20038;-65
2022/07/30 10:19:31;;;;;;;7.07;2.67;;;;;;;24.31;37.99;97571.41;5016209;28;20520;-65
2022/07/30 10:22:26;;;;;;;6.68;2.22;;;;;;;24.64;37.77;97578.94;5017886;28;20194;-65
2022/07/30 10:25:15;;;;;;;8.68;2.53;;;;;;;24.46;37.30;97560.88;5020458;28;20047;-65
2022/07/30 10:28:01;;;;;;;8.10;2.05;;;;;;;24.31;37.79;97576.94;5011118;28;20057;-65
2022/07/30 10:30:31;;;;;;;5.40;1.98;;;;;;;24.26;38.00;97569.66;5021029;28;20846;-65
2022/07/30 10:32:59;;;;;;;4.22;2.20;;;;;;;24.09;37.36;97570.56;5005559;28;20045;-65
2022/07/30 10:35:27;;;;;;;5.47;2.17;;;;;;;24.09;37.56;97566.97;5012180;28;20037;-65
2022/07/30 10:38:09;;;;;;;7.03;2.30;;;;;;;24.32;36.95;97572.22;5012987;28;20103;-65
2022/07/30 10:41:02;;;;;;;4.28;1.98;;;;;;;24.75;36.21;97584.84;5020009;28;20564;-65
2022/07/30 10:43:48;;;;;;;6.47;2.30;;;;;;;24.71;36.63;97574.78;5012762;28;20077;-65
2022/07/30 10:46:42;;;;;;;4.13;2.00;;;;;;;24.69;35.77;97572.34;5013917;28;20366;-66
2022/07/30 10:49:15;;;;;;;3.90;1.77;;;;;;;24.99;34.85;97565.91;5006014;28;20417;-65
2022/07/30 10:51:47;;;;;;;4.88;1.98;;;;;;;25.12;35.16;97566.72;5020442;28;20493;-65
2022/07/30 10:54:32;;;;;;;4.10;2.08;;;;;;;25.12;35.46;97563.94;5026534;28;20052;-64
2022/07/30 10:57:05;;;;;;;5.75;2.25;;;;;;;25.19;36.56;97573.31;5021257;28;20469;-65
2022/07/30 10:59:57;;;;;;;4.25;1.95;;;;;;;25.16;36.65;97560.16;5012432;28;20171;-65
2022/07/30 11:02:28;;;;;;;6.97;2.30;;;;;;;25.06;37.08;97580.78;5015293;28;20037;-65
2022/07/30 11:05:18;;;;;;;7.37;2.03;;;;;;;24.77;37.47;97565.91;5016218;28;20053;-65
2022/07/30 11:08:34;;;;;;;4.15;1.60;;;;;;;24.83;35.16;97565.72;5022746;28;20060;-65
2022/07/30 11:11:04;;;;;;;4.40;1.88;;;;;;;25.25;34.66;97556.47;5023567;28;20045;-65
2022/07/30 11:13:50;;;;;;;6.25;2.30;;;;;;;25.11;34.98;97548.47;5024005;28;20128;-65
2022/07/30 11:16:39;;;;;;;4.60;2.05;;;;;;;24.96;35.53;97550.78;5014199;28;20129;-65
2022/07/30 11:19:15;;;;;;;3.78;1.88;;;;;;;25.26;35.70;97567.22;5015083;28;20507;-65
2022/07/30 11:22:24;;;;;;;5.37;1.83;;;;;;;25.02;34.71;97560.47;5012040;28;20057;-65
2022/07/30 11:24:51;;;;;;;2.92;1.65;;;;;;;25.42;35.15;97563.75;5013520;28;20093;-65
2022/07/30 11:27:49;;;;;;;5.28;1.83;;;;;;;26.20;33.50;97552.69;5010879;28;20034;-65
2022/07/30 11:30:15;;;;;;;4.57;1.90;;;;;;;26.18;33.53;97549.47;5017548;28;20063;-65
2022/07/30 11:32:53;;;;;;;4.65;1.85;;;;;;;26.49;32.56;97552.72;5016114;28;20541;-65
2022/07/30 11:35:31;;;;;;;4.68;2.00;;;;;;;26.33;33.39;97547.94;5017192;28;20065;-65
2022/07/30 11:38:08;;;;;;;5.63;1.67;;;;;;;26.18;32.79;97543.91;5006563;28;20050;-65
2022/07/30 11:40:35;;;;;;;5.90;1.70;;;;;;;26.23;32.34;97538.13;5010050;28;20049;-65
2022/07/30 11:43:23;;;;;;;10.90;1.58;;;;;;;26.64;31.96;97542.03;5023288;28;20527;-65
2022/07/30 11:46:22;;;;;;;6.65;1.42;;;;;;;26.92;31.36;97543.94;5009291;28;20050;-66
2022/07/30 11:49:01;;;;;;;4.28;1.80;;;;;;;27.07;31.07;97537.63;5014295;28;20107;-65
2022/07/30 11:51:42;;;;;;;2.92;1.60;;;;;;;27.22;31.71;97543.53;5018058;28;20064;-66
2022/07/30 11:54:10;;;;;;;5.65;1.55;;;;;;;26.80;31.05;97537.31;5018091;28;20052;-65
2022/07/30 11:56:53;;;;;;;4.63;1.65;;;;;;;26.18;32.28;97537.53;5023758;28;20529;-65
2022/07/30 11:59:20;;;;;;;4.97;1.77;;;;;;;26.37;32.22;97531.38;5019138;28;20103;-65
2022/07/30 12:01:52;;;;;;;9.88;1.85;;;;;;;26.74;31.66;97536.75;5014872;28;20041;-65
2022/07/30 12:04:18;;;;;;;3.97;1.65;;;;;;;27.33;31.22;97536.28;5023104;28;20049;-65
2022/07/30 12:06:47;;;;;;;4.50;1.45;;;;;;;27.02;30.97;97529.56;5022868;28;20041;-65
2022/07/30 12:09:27;;;;;;;4.18;1.50;;;;;;;26.55;31.93;97539.41;5014294;28;20125;-65